createdAt,value
2023-03-06T00:01:17.545Z,70.06
2023-03-06T00:03:44.233Z,70.04
2023-03-06T00:06:10.902Z,70.18
2023-03-06T00:08:37.556Z,70.00
2023-03-06T00:11:04.251Z,69.97
2023-03-06T00:13:32.266Z,70.02
2023-03-06T00:16:00.158Z,70.04
2023-03-06T00:18:27.121Z,69.97
2023-03-06T00:20:53.723Z,70.12
2023-03-06T00:23:20.339Z,70.13
2023-03-06T00:25:47.960Z,70.21
2023-03-06T00:28:15.844Z,70.30
2023-03-06T00:30:42.858Z,70.37
2023-03-06T00:33:09.693Z,70.26
2023-03-06T00:35:38.745Z,70.44
2023-03-06T00:38:05.374Z,70.48
2023-03-06T00:40:32.608Z,70.58
2023-03-06T00:42:59.646Z,70.64
2023-03-06T00:45:26.310Z,70.50
2023-03-06T00:47:52.913Z,70.63
2023-03-06T00:50:19.706Z,70.44
2023-03-06T00:52:46.280Z,70.55
2023-03-06T00:55:12.933Z,70.54
2023-03-06T00:57:40.544Z,70.42
2023-03-06T01:00:07.606Z,70.34
2023-03-06T01:02:34.214Z,70.36
2023-03-06T01:05:00.994Z,70.38
2023-03-06T01:07:27.949Z,70.20
2023-03-06T01:09:57.187Z,70.11
2023-03-06T01:12:23.868Z,70.29
2023-03-06T01:14:50.818Z,70.23
2023-03-06T01:17:17.442Z,70.28
2023-03-06T01:19:44.083Z,70.19
2023-03-06T01:22:12.522Z,70.06
2023-03-06T01:24:39.200Z,70.09
2023-03-06T01:27:05.946Z,70.39
2023-03-06T01:29:32.571Z,70.41
2023-03-06T01:31:59.454Z,70.34
2023-03-06T01:34:26.225Z,70.42
2023-03-06T01:36:52.860Z,70.54
2023-03-06T01:39:19.484Z,70.64
2023-03-06T01:41:46.313Z,70.60
2023-03-06T01:44:13.877Z,70.60
2023-03-06T01:46:42.490Z,70.59
2023-03-06T01:49:19.655Z,70.64
2023-03-06T01:51:54.733Z,70.68
2023-03-06T01:54:31.111Z,70.59
2023-03-06T01:57:01.076Z,70.64
2023-03-06T01:59:27.798Z,70.52
2023-03-06T02:01:55.737Z,70.55
2023-03-06T02:04:22.642Z,70.45
2023-03-06T02:06:50.418Z,70.40
2023-03-06T02:09:17.094Z,70.58
2023-03-06T02:11:44.409Z,70.31
2023-03-06T02:14:13.055Z,70.37
2023-03-06T02:16:39.872Z,70.15
2023-03-06T02:19:08.181Z,70.02
2023-03-06T02:21:36.401Z,70.08
2023-03-06T02:24:39.526Z,69.71
2023-03-06T02:27:06.175Z,69.85
2023-03-06T02:29:33.002Z,69.90
2023-03-06T02:32:02.011Z,69.85
2023-03-06T02:34:28.874Z,69.80
2023-03-06T02:37:03.204Z,69.70
2023-03-06T02:39:31.066Z,69.92
2023-03-06T02:41:57.798Z,70.07
2023-03-06T02:44:24.999Z,70.33
2023-03-06T02:46:51.676Z,70.65
2023-03-06T02:49:18.312Z,70.67
2023-03-06T02:51:45.174Z,70.91
2023-03-06T02:54:11.932Z,70.72
2023-03-06T02:56:38.573Z,70.92
2023-03-06T02:59:05.257Z,70.74
2023-03-06T03:01:32.885Z,70.49
2023-03-06T03:03:59.500Z,70.62
2023-03-06T03:06:27.427Z,70.66
2023-03-06T03:08:54.426Z,70.62
2023-03-06T03:11:21.040Z,70.65
2023-03-06T03:13:47.698Z,70.66
2023-03-06T03:16:18.292Z,70.89
2023-03-06T03:18:48.071Z,70.86
2023-03-06T03:21:16.211Z,71.03
2023-03-06T03:23:44.094Z,70.86
2023-03-06T03:26:15.707Z,71.00
2023-03-06T03:28:45.316Z,70.98
2023-03-06T03:31:13.317Z,71.00
2023-03-06T03:33:40.538Z,71.17
2023-03-06T03:36:07.744Z,71.46
2023-03-06T03:38:35.973Z,71.59
2023-03-06T03:41:02.847Z,71.70
2023-03-06T03:43:30.024Z,71.65
2023-03-06T03:45:57.665Z,71.69
2023-03-06T03:48:24.666Z,71.68
2023-03-06T03:50:51.695Z,71.63
2023-03-06T03:53:18.692Z,71.72
2023-03-06T03:55:47.282Z,71.74
2023-03-06T03:58:14.432Z,71.74
2023-03-06T04:00:41.398Z,71.78
2023-03-06T04:03:10.799Z,71.90
2023-03-06T04:05:40.785Z,72.06
2023-03-06T04:08:08.363Z,72.18
2023-03-06T04:10:38.747Z,72.28
2023-03-06T04:13:09.571Z,72.20
2023-03-06T04:15:41.848Z,72.18
2023-03-06T04:18:09.071Z,71.96
2023-03-06T04:20:35.776Z,72.33
2023-03-06T04:23:03.100Z,72.21
2023-03-06T04:25:29.738Z,72.20
2023-03-06T04:27:57.873Z,72.23
2023-03-06T04:30:24.850Z,72.29
2023-03-06T04:32:51.566Z,72.41
2023-03-06T04:35:18.663Z,72.42
2023-03-06T04:37:52.487Z,72.34
2023-03-06T04:40:28.224Z,72.52
2023-03-06T04:42:56.252Z,72.49
2023-03-06T04:45:23.047Z,72.64
2023-03-06T04:47:49.683Z,72.69
2023-03-06T04:50:16.748Z,72.77
2023-03-06T04:52:43.249Z,72.86
2023-03-06T04:55:10.815Z,72.92
2023-03-06T04:57:38.228Z,73.16
2023-03-06T05:00:07.905Z,73.14
2023-03-06T05:02:34.519Z,73.18
2023-03-06T05:05:01.270Z,73.37
2023-03-06T05:07:27.906Z,73.39
2023-03-06T05:09:54.627Z,73.52
2023-03-06T05:12:21.275Z,73.76
2023-03-06T05:14:48.202Z,73.82
2023-03-06T05:17:14.933Z,73.99
2023-03-06T05:19:42.198Z,74.00
2023-03-06T05:22:08.816Z,74.12
2023-03-06T05:24:35.432Z,74.01
2023-03-06T05:27:02.063Z,74.30
2023-03-06T05:29:28.747Z,74.30
2023-03-06T05:31:55.754Z,74.29
2023-03-06T05:34:22.495Z,74.41
2023-03-06T05:36:49.097Z,74.48
2023-03-06T05:39:15.708Z,74.57
2023-03-06T05:41:42.387Z,74.34
2023-03-06T05:44:09.009Z,74.33
2023-03-06T05:46:35.638Z,74.37
2023-03-06T05:49:02.269Z,74.41
2023-03-06T05:51:28.865Z,74.49
2023-03-06T05:53:55.470Z,74.62
2023-03-06T05:56:22.199Z,74.85
2023-03-06T05:58:48.931Z,74.91
2023-03-06T06:01:18.010Z,74.72
2023-03-06T06:03:44.885Z,74.65
2023-03-06T06:06:13.399Z,74.63
2023-03-06T06:08:40.248Z,74.72
2023-03-06T06:11:07.921Z,74.68
2023-03-06T06:13:34.526Z,74.63
2023-03-06T06:16:06.963Z,74.61
2023-03-06T06:18:33.557Z,74.74
2023-03-06T06:21:03.682Z,74.81
2023-03-06T06:23:30.856Z,74.58
2023-03-06T06:26:03.150Z,74.51
2023-03-06T06:28:29.939Z,74.11
2023-03-06T06:30:56.621Z,74.33
2023-03-06T06:33:23.881Z,74.27
2023-03-06T06:35:50.833Z,74.28
2023-03-06T06:38:17.776Z,74.42
2023-03-06T06:40:46.964Z,74.43
2023-03-06T06:43:25.087Z,74.50
2023-03-06T06:45:52.201Z,74.69
2023-03-06T06:48:20.904Z,74.60
2023-03-06T06:50:55.233Z,74.61
2023-03-06T06:53:21.798Z,74.47
2023-03-06T06:55:48.435Z,74.81
2023-03-06T06:58:15.231Z,74.69
2023-03-06T07:00:41.864Z,74.92
2023-03-06T07:03:09.308Z,74.93
2023-03-06T07:05:35.923Z,74.79
2023-03-06T07:08:02.532Z,74.87
2023-03-06T07:10:29.166Z,74.72
2023-03-06T07:12:56.652Z,74.78
2023-03-06T07:15:26.866Z,74.65
2023-03-06T07:17:53.544Z,74.78
2023-03-06T07:20:20.457Z,74.84
2023-03-06T07:22:51.440Z,74.82
2023-03-06T07:25:19.032Z,74.86
2023-03-06T07:27:52.696Z,74.75
2023-03-06T07:30:21.489Z,74.82
2023-03-06T07:32:48.132Z,74.69
2023-03-06T07:35:20.353Z,74.62
2023-03-06T07:37:47.524Z,74.59
2023-03-06T07:40:14.202Z,74.67
2023-03-06T07:42:40.857Z,74.58
2023-03-06T07:45:12.429Z,74.67
2023-03-06T07:47:39.726Z,74.90
2023-03-06T07:50:07.455Z,74.53
2023-03-06T07:52:34.439Z,74.68
2023-03-06T07:55:01.045Z,74.88
2023-03-06T07:57:27.672Z,74.61
2023-03-06T07:59:54.407Z,74.64
2023-03-06T08:02:21.017Z,74.61
2023-03-06T08:04:53.327Z,74.71
2023-03-06T08:07:19.962Z,74.94
2023-03-06T08:09:46.572Z,75.12
2023-03-06T08:12:14.690Z,75.02
2023-03-06T08:14:42.409Z,74.69
2023-03-06T08:17:09.039Z,74.80
2023-03-06T08:19:35.641Z,75.03
2023-03-06T08:22:04.560Z,74.95
2023-03-06T08:24:31.591Z,74.79
2023-03-06T08:26:58.137Z,74.33
2023-03-06T08:29:24.857Z,74.31
2023-03-06T08:31:51.531Z,74.62
2023-03-06T08:34:22.464Z,74.75
2023-03-06T08:36:49.102Z,74.73
2023-03-06T08:39:15.722Z,74.54
2023-03-06T08:41:43.024Z,74.18
2023-03-06T08:44:09.917Z,74.37
2023-03-06T08:46:36.722Z,74.59
2023-03-06T08:49:03.602Z,74.30
2023-03-06T08:51:30.272Z,74.04
2023-03-06T08:53:57.290Z,74.19
2023-03-06T08:56:25.976Z,74.28
2023-03-06T08:58:52.764Z,74.26
2023-03-06T09:01:24.129Z,74.43
2023-03-06T09:03:51.324Z,74.21
2023-03-06T09:06:18.017Z,74.14
2023-03-06T09:08:44.775Z,74.21
2023-03-06T09:11:13.763Z,73.80
2023-03-06T09:13:40.983Z,73.84
2023-03-06T09:16:08.548Z,74.06
2023-03-06T09:18:35.380Z,74.44
2023-03-06T09:21:02.199Z,74.50
2023-03-06T09:23:28.854Z,74.32
2023-03-06T09:25:56.357Z,74.25
2023-03-06T09:28:23.620Z,74.23
2023-03-06T09:30:50.661Z,74.57
2023-03-06T09:33:21.837Z,74.07
2023-03-06T09:35:54.658Z,74.24
2023-03-06T09:38:23.685Z,74.54
2023-03-06T09:41:29.425Z,74.28
2023-03-06T09:44:14.595Z,74.29
2023-03-06T09:46:47.382Z,74.36
2023-03-06T09:49:39.029Z,74.26
2023-03-06T09:52:10.156Z,74.80
2023-03-06T09:54:52.412Z,74.70
2023-03-06T09:57:31.712Z,74.74
2023-03-06T10:00:05.960Z,74.87
2023-03-06T10:02:48.065Z,74.60
2023-03-06T10:05:29.246Z,74.86
2023-03-06T10:08:01.877Z,74.85
2023-03-06T10:10:35.922Z,75.00
2023-03-06T10:13:05.594Z,75.15
2023-03-06T10:15:36.388Z,75.29
2023-03-06T10:18:03.388Z,75.24
2023-03-06T10:20:53.515Z,75.37
2023-03-06T10:23:35.459Z,75.50
2023-03-06T10:26:19.694Z,75.46
2023-03-06T10:29:11.243Z,75.34
2023-03-06T10:31:39.783Z,75.35
2023-03-06T10:34:21.916Z,75.29
2023-03-06T10:36:48.902Z,75.41
2023-03-06T10:39:17.729Z,75.07
2023-03-06T10:41:45.321Z,75.36
2023-03-06T10:44:12.131Z,74.96
2023-03-06T10:46:42.494Z,74.83
2023-03-06T10:49:41.960Z,74.80
2023-03-06T10:52:14.339Z,74.67
2023-03-06T10:54:42.814Z,74.48
2023-03-06T10:57:29.489Z,74.34
2023-03-06T11:00:01.231Z,74.24
2023-03-06T11:02:36.759Z,74.23
2023-03-06T11:05:03.933Z,74.13
2023-03-06T11:07:33.958Z,73.97
2023-03-06T11:10:19.144Z,74.03
2023-03-06T11:13:03.012Z,73.85
2023-03-06T11:15:29.944Z,73.81
2023-03-06T11:18:04.531Z,73.75
2023-03-06T11:20:51.508Z,73.63
2023-03-06T11:23:47.271Z,73.63
2023-03-06T11:26:17.036Z,73.70
2023-03-06T11:29:04.661Z,73.54
2023-03-06T11:31:52.893Z,73.78
2023-03-06T11:34:21.502Z,73.50
2023-03-06T11:36:53.577Z,73.57
2023-03-06T11:39:36.225Z,73.43
2023-03-06T11:42:17.508Z,73.37
2023-03-06T11:45:15.531Z,73.19
2023-03-06T11:48:23.972Z,73.10
2023-03-06T11:50:52.676Z,72.93
2023-03-06T11:53:21.363Z,73.02
2023-03-06T11:55:55.055Z,73.01
2023-03-06T11:58:54.215Z,72.89
2023-03-06T12:01:33.810Z,72.75
2023-03-06T12:04:06.555Z,72.74
2023-03-06T12:07:12.326Z,72.78
2023-03-06T12:09:54.056Z,72.21
2023-03-06T12:12:50.459Z,72.20
2023-03-06T12:15:20.804Z,72.02
2023-03-06T12:18:09.440Z,72.16
2023-03-06T12:20:51.247Z,72.00
2023-03-06T12:23:38.082Z,71.89
2023-03-06T12:26:14.358Z,72.03
2023-03-06T12:29:03.174Z,71.90
2023-03-06T12:31:48.729Z,71.84
2023-03-06T12:34:18.567Z,71.61
2023-03-06T12:36:51.907Z,71.38
2023-03-06T12:39:59.030Z,71.09
2023-03-06T12:42:29.908Z,71.00
2023-03-06T12:45:11.049Z,70.77
2023-03-06T12:47:45.104Z,70.83
2023-03-06T12:50:26.635Z,70.89
2023-03-06T12:52:59.125Z,70.41
2023-03-06T12:55:26.213Z,70.52
2023-03-06T12:57:53.115Z,70.85
2023-03-06T13:00:32.131Z,70.78
2023-03-06T13:03:06.905Z,70.78
2023-03-06T13:05:49.572Z,70.72
2023-03-06T13:08:28.685Z,70.84
2023-03-06T13:11:33.486Z,70.52
2023-03-06T13:14:00.444Z,70.68
2023-03-06T13:16:31.285Z,70.62
2023-03-06T13:19:11.421Z,70.34
2023-03-06T13:21:47.965Z,70.31
2023-03-06T13:24:22.415Z,70.30
2023-03-06T13:27:06.040Z,69.98
2023-03-06T13:29:35.885Z,69.93
2023-03-06T13:32:02.726Z,70.42
2023-03-06T13:34:33.624Z,70.42
2023-03-06T13:37:20.014Z,70.49
2023-03-06T13:39:56.094Z,70.44
2023-03-06T13:42:32.779Z,70.52
2023-03-06T13:45:24.100Z,70.22
2023-03-06T13:48:33.685Z,70.54
2023-03-06T13:50:43.508Z,70.39
2023-03-06T13:53:22.490Z,70.57
2023-03-06T13:56:10.691Z,70.27
2023-03-06T13:58:43.472Z,70.50
2023-03-06T14:01:40.555Z,70.43
2023-03-06T14:04:13.045Z,70.18
2023-03-06T14:06:42.192Z,69.98
2023-03-06T14:09:22.093Z,69.98
2023-03-06T14:11:52.110Z,70.08
2023-03-06T14:14:28.737Z,69.78
2023-03-06T14:16:55.568Z,70.13
2023-03-06T14:19:22.779Z,70.07
2023-03-06T14:21:51.346Z,69.78
2023-03-06T14:24:19.968Z,69.99
2023-03-06T14:26:48.909Z,69.89
2023-03-06T14:29:23.790Z,69.88
2023-03-06T14:31:55.140Z,69.81
2023-03-06T14:34:32.440Z,69.93
2023-03-06T14:37:01.628Z,69.93
2023-03-06T14:39:35.495Z,69.78
2023-03-06T14:42:07.286Z,69.68
2023-03-06T14:44:34.087Z,69.57
2023-03-06T14:47:20.699Z,69.61
2023-03-06T14:49:47.464Z,69.65
2023-03-06T14:52:20.241Z,69.57
2023-03-06T14:54:47.035Z,69.56
2023-03-06T14:57:14.897Z,69.58
2023-03-06T14:59:51.166Z,69.57
2023-03-06T15:02:20.502Z,69.58
2023-03-06T15:05:35.002Z,69.48
2023-03-06T15:08:03.848Z,69.66
2023-03-06T15:10:33.236Z,69.64
2023-03-06T15:13:22.531Z,69.65
2023-03-06T15:15:59.394Z,69.19
2023-03-06T15:19:02.657Z,69.58
2023-03-06T15:21:38.176Z,69.96
2023-03-06T15:24:34.239Z,70.15
2023-03-06T15:27:04.661Z,70.18
2023-03-06T15:29:31.449Z,70.46
2023-03-06T15:32:33.016Z,70.76
2023-03-06T15:35:24.653Z,71.06
2023-03-06T15:37:51.784Z,71.22
2023-03-06T15:40:19.572Z,71.29
2023-03-06T15:42:49.962Z,71.51
2023-03-06T15:45:21.960Z,71.56
2023-03-06T15:47:49.723Z,71.92
2023-03-06T15:50:18.155Z,71.91
2023-03-06T15:52:45.524Z,71.94
2023-03-06T15:55:13.331Z,72.07
2023-03-06T15:57:51.002Z,72.40
2023-03-06T16:00:27.598Z,72.39
2023-03-06T16:02:58.204Z,72.56
2023-03-06T16:05:25.421Z,72.58
2023-03-06T16:07:58.899Z,72.44
2023-03-06T16:10:27.725Z,72.87
2023-03-06T16:12:56.831Z,72.70
2023-03-06T16:15:30.973Z,72.88
2023-03-06T16:17:57.839Z,72.92
2023-03-06T16:20:26.181Z,73.17
2023-03-06T16:22:55.851Z,73.28
2023-03-06T16:25:23.817Z,73.26
2023-03-06T16:27:58.132Z,73.07
2023-03-06T16:30:29.724Z,73.48
2023-03-06T16:32:57.195Z,73.50
2023-03-06T16:35:23.968Z,73.77
2023-03-06T16:37:50.667Z,73.73
2023-03-06T16:40:20.363Z,73.84
2023-03-06T16:42:47.103Z,73.97
2023-03-06T16:45:13.971Z,73.97
2023-03-06T16:47:40.912Z,73.96
2023-03-06T16:50:30.797Z,73.97
2023-03-06T16:52:57.472Z,74.04
2023-03-06T16:55:25.063Z,73.97
2023-03-06T16:57:51.844Z,74.07
2023-03-06T17:00:19.061Z,74.12
2023-03-06T17:02:48.547Z,74.10
2023-03-06T17:05:16.855Z,74.06
2023-03-06T17:07:43.998Z,73.89
2023-03-06T17:10:13.097Z,73.87
2023-03-06T17:12:39.715Z,73.75
2023-03-06T17:15:07.076Z,73.80
2023-03-06T17:17:33.805Z,73.90
2023-03-06T17:20:00.464Z,73.84
2023-03-06T17:22:27.435Z,73.96
2023-03-06T17:24:54.138Z,74.01
2023-03-06T17:27:22.698Z,74.21
2023-03-06T17:29:49.419Z,74.08
2023-03-06T17:32:16.120Z,74.20
2023-03-06T17:34:42.880Z,74.11
2023-03-06T17:37:09.663Z,74.18
2023-03-06T17:39:37.510Z,74.19
2023-03-06T17:42:04.948Z,74.27
2023-03-06T17:44:34.346Z,74.33
2023-03-06T17:47:01.000Z,74.31
2023-03-06T17:49:27.743Z,74.00
2023-03-06T17:51:56.859Z,74.22
2023-03-06T17:54:40.419Z,74.22
2023-03-06T17:57:10.066Z,74.26
2023-03-06T18:00:01.849Z,74.40
2023-03-06T18:02:49.565Z,74.36
2023-03-06T18:05:18.344Z,74.28
2023-03-06T18:07:45.030Z,74.30
2023-03-06T18:10:11.736Z,74.29
2023-03-06T18:12:39.756Z,74.15
2023-03-06T18:15:08.113Z,74.31
2023-03-06T18:17:38.927Z,74.08
2023-03-06T18:20:10.103Z,74.29
2023-03-06T18:22:36.784Z,74.14
2023-03-06T18:25:04.261Z,73.82
2023-03-06T18:27:34.455Z,73.98
2023-03-06T18:30:01.564Z,74.13
2023-03-06T18:32:55.889Z,74.05
2023-03-06T18:35:25.302Z,74.01
2023-03-06T18:37:55.015Z,73.98
2023-03-06T18:40:24.949Z,73.92
2023-03-06T18:42:54.788Z,74.08
2023-03-06T18:45:21.629Z,74.12
2023-03-06T18:47:48.370Z,74.17
2023-03-06T18:50:17.662Z,74.22
2023-03-06T18:52:44.699Z,74.12
2023-03-06T18:55:12.419Z,74.13
2023-03-06T18:57:39.240Z,74.11
2023-03-06T19:00:06.971Z,73.97
2023-03-06T19:02:33.781Z,73.90
2023-03-06T19:05:00.406Z,74.13
2023-03-06T19:07:27.174Z,74.02
2023-03-06T19:09:54.697Z,74.17
2023-03-06T19:12:21.342Z,74.33
2023-03-06T19:14:48.058Z,74.21
2023-03-06T19:17:14.682Z,74.23
2023-03-06T19:19:41.390Z,73.93
2023-03-06T19:22:08.164Z,74.33
2023-03-06T19:24:34.789Z,74.23
2023-03-06T19:27:01.399Z,74.20
2023-03-06T19:29:28.568Z,74.35
2023-03-06T19:31:57.336Z,74.55
2023-03-06T19:34:24.160Z,74.34
2023-03-06T19:36:50.943Z,74.42
2023-03-06T19:39:17.600Z,74.41
2023-03-06T19:41:46.439Z,74.24
2023-03-06T19:44:14.706Z,74.26
2023-03-06T19:46:41.376Z,74.37
2023-03-06T19:49:12.201Z,74.49
2023-03-06T19:51:39.005Z,74.16
2023-03-06T19:54:05.678Z,74.37
2023-03-06T19:56:33.707Z,74.02
2023-03-06T19:59:00.365Z,74.07
2023-03-06T20:01:27.479Z,74.17
2023-03-06T20:03:58.702Z,74.30
2023-03-06T20:06:27.795Z,74.39
2023-03-06T20:08:54.382Z,74.69
2023-03-06T20:11:25.775Z,74.55
2023-03-06T20:13:52.714Z,74.74
2023-03-06T20:16:19.544Z,74.74
2023-03-06T20:18:46.382Z,74.63
2023-03-06T20:21:13.052Z,74.79
2023-03-06T20:23:39.715Z,75.05
2023-03-06T20:26:09.491Z,74.79
2023-03-06T20:28:37.248Z,75.14
2023-03-06T20:31:13.426Z,75.24
2023-03-06T20:33:40.193Z,75.19
2023-03-06T20:36:17.210Z,75.10
2023-03-06T20:38:44.007Z,75.00
2023-03-06T20:41:17.829Z,75.01
2023-03-06T20:43:44.770Z,75.15
2023-03-06T20:46:15.666Z,75.07
2023-03-06T20:48:43.084Z,75.19
2023-03-06T20:51:18.090Z,75.37
2023-03-06T20:53:45.934Z,75.06
2023-03-06T20:56:13.861Z,74.89
2023-03-06T20:58:40.516Z,74.93
2023-03-06T21:01:07.178Z,74.84
2023-03-06T21:03:33.961Z,75.03
2023-03-06T21:06:00.817Z,75.11
2023-03-06T21:08:27.468Z,75.12
2023-03-06T21:10:54.080Z,75.17
2023-03-06T21:13:20.825Z,75.18
2023-03-06T21:15:47.724Z,75.03
2023-03-06T21:18:14.465Z,75.05
2023-03-06T21:20:41.523Z,75.13
2023-03-06T21:23:08.145Z,75.19
2023-03-06T21:25:34.773Z,75.26
2023-03-06T21:28:01.576Z,75.06
2023-03-06T21:30:29.473Z,75.51
2023-03-06T21:32:56.195Z,75.25
2023-03-06T21:35:22.822Z,75.40
2023-03-06T21:37:49.565Z,75.41
2023-03-06T21:40:16.302Z,75.38
2023-03-06T21:42:43.007Z,75.13
2023-03-06T21:45:10.608Z,75.27
2023-03-06T21:47:41.080Z,75.07
2023-03-06T21:50:09.594Z,75.04
2023-03-06T21:52:36.255Z,74.88
2023-03-06T21:55:02.866Z,74.97
2023-03-06T21:57:29.566Z,75.12
2023-03-06T21:59:56.275Z,74.87
2023-03-06T22:02:23.020Z,74.98
2023-03-06T22:04:51.178Z,74.79
2023-03-06T22:07:18.455Z,74.86
2023-03-06T22:09:45.765Z,74.79
2023-03-06T22:12:12.436Z,74.88
2023-03-06T22:14:39.174Z,74.84
2023-03-06T22:17:05.787Z,74.93
2023-03-06T22:19:32.654Z,75.03
2023-03-06T22:21:59.292Z,75.33
2023-03-06T22:24:26.529Z,74.96
2023-03-06T22:26:53.225Z,74.91
2023-03-06T22:29:19.897Z,74.87
2023-03-06T22:31:46.752Z,74.62
2023-03-06T22:34:13.426Z,74.70
2023-03-06T22:36:39.981Z,74.49
2023-03-06T22:39:06.624Z,74.62
2023-03-06T22:41:33.422Z,74.79
2023-03-06T22:44:01.020Z,74.65
2023-03-06T22:46:27.918Z,74.75
2023-03-06T22:48:58.220Z,74.93
2023-03-06T22:51:24.978Z,74.78
2023-03-06T22:53:51.609Z,74.85
2023-03-06T22:56:19.617Z,74.80
2023-03-06T22:58:46.430Z,74.91
2023-03-06T23:01:15.319Z,74.91
2023-03-06T23:03:46.351Z,75.00
2023-03-06T23:06:17.826Z,74.89
2023-03-06T23:08:45.075Z,75.29
2023-03-06T23:11:13.685Z,75.14
2023-03-06T23:13:59.061Z,74.72
2023-03-06T23:16:44.559Z,74.96
2023-03-06T23:19:30.107Z,74.95
2023-03-06T23:22:15.790Z,75.06
2023-03-06T23:25:01.067Z,75.08
2023-03-06T23:27:29.552Z,74.70
2023-03-06T23:29:59.138Z,74.73
2023-03-06T23:32:26.194Z,74.46
2023-03-06T23:34:53.031Z,74.06
2023-03-06T23:37:19.895Z,73.97
2023-03-06T23:39:46.971Z,74.08
2023-03-06T23:42:13.638Z,73.98
2023-03-06T23:44:40.513Z,73.86
2023-03-06T23:47:07.163Z,73.69
2023-03-06T23:49:34.003Z,73.41
2023-03-06T23:52:00.746Z,73.45
2023-03-06T23:54:27.592Z,73.40
2023-03-06T23:56:54.223Z,73.26
2023-03-06T23:59:20.874Z,73.37
